EJU53FY LFBO-LEPA
Flight info
| Callsign | EJU53FY |
|---|---|
| Flight time | 0h 52m |
| Altitude | 37000 |
| Route | RIBOU DCT ROCAN DCT IBRAP N13 LORES |
| Aircraft | A21N/M-SDE2E3FGHIRWXY/LB1 |
Departure
| Time | 2026-05-07 20:33 |
|---|---|
| Airport | Toulouse-Blagnac Airport (LFBO) |
Arrival
| Time | 2026-05-07 21:25 |
|---|---|
| Airport | Palma de Mallorca Airport (LEPA) |
| Time | Latitude | Longitude | Altitude | Speed | Heading |
|---|---|---|---|---|---|
| 2026-05-07 20:03 | 43.63033 | 1.37242 | 499 ft | 0 kts | 53° |
| 2026-05-07 20:23 | 43.63031 | 1.37238 | 472 ft | 3 kts | 53° |
| 2026-05-07 20:23 | 43.63015 | 1.37208 | 499 ft | 4 kts | 52° |
| 2026-05-07 20:23 | 43.63003 | 1.37185 | 499 ft | 4 kts | 59° |
| 2026-05-07 20:24 | 43.62996 | 1.37156 | 499 ft | 5 kts | 115° |
| 2026-05-07 20:24 | 43.63011 | 1.37136 | 499 ft | 3 kts | 143° |
| 2026-05-07 20:24 | 43.63013 | 1.37135 | 499 ft | 0 kts | 143° |
| 2026-05-07 20:28 | 43.63012 | 1.37135 | 499 ft | 1 kts | 143° |
| 2026-05-07 20:28 | 43.62997 | 1.37151 | 499 ft | 5 kts | 143° |
| 2026-05-07 20:29 | 43.62962 | 1.37187 | 499 ft | 8 kts | 143° |
| 2026-05-07 20:29 | 43.62904 | 1.37188 | 499 ft | 11 kts | 216° |
| 2026-05-07 20:29 | 43.62850 | 1.37098 | 499 ft | 14 kts | 232° |
| 2026-05-07 20:29 | 43.62759 | 1.37089 | 499 ft | 16 kts | 146° |
| 2026-05-07 20:30 | 43.62661 | 1.37193 | 499 ft | 19 kts | 143° |
| 2026-05-07 20:30 | 43.62550 | 1.37307 | 499 ft | 21 kts | 142° |
| 2026-05-07 20:30 | 43.62428 | 1.37434 | 499 ft | 23 kts | 143° |
| 2026-05-07 20:30 | 43.62294 | 1.37574 | 499 ft | 25 kts | 143° |
| 2026-05-07 20:31 | 43.62150 | 1.37723 | 499 ft | 27 kts | 143° |
| 2026-05-07 20:31 | 43.62000 | 1.37879 | 499 ft | 28 kts | 143° |
| 2026-05-07 20:31 | 43.61848 | 1.38036 | 499 ft | 24 kts | 143° |
| 2026-05-07 20:31 | 43.61715 | 1.38174 | 499 ft | 18 kts | 150° |
| 2026-05-07 20:32 | 43.61616 | 1.38103 | 499 ft | 20 kts | 242° |
| 2026-05-07 20:32 | 43.61621 | 1.37965 | 499 ft | 17 kts | 326° |
| 2026-05-07 20:32 | 43.61768 | 1.37812 | 499 ft | 54 kts | 322° |
| 2026-05-07 20:32 | 43.62258 | 1.37301 | 499 ft | 120 kts | 322° |
| 2026-05-07 20:33 | 43.63067 | 1.36458 | 509 ft | 166 kts | 324° |
| 2026-05-07 20:33 | 43.63973 | 1.35522 | 1085 ft | 164 kts | 323° |
| 2026-05-07 20:33 | 43.64876 | 1.34494 | 1622 ft | 173 kts | 321° |
| 2026-05-07 20:33 | 43.65854 | 1.33401 | 2125 ft | 188 kts | 322° |
| 2026-05-07 20:34 | 43.66928 | 1.32233 | 2760 ft | 206 kts | 322° |
| 2026-05-07 20:34 | 43.68106 | 1.30958 | 3439 ft | 225 kts | 322° |
| 2026-05-07 20:34 | 43.69513 | 1.29716 | 3927 ft | 254 kts | 339° |
| 2026-05-07 20:34 | 43.71303 | 1.29362 | 4642 ft | 267 kts | 7° |
| 2026-05-07 20:35 | 43.73051 | 1.30207 | 5588 ft | 270 kts | 34° |
| 2026-05-07 20:35 | 43.74339 | 1.32097 | 6545 ft | 273 kts | 61° |
| 2026-05-07 20:35 | 43.74858 | 1.34587 | 7439 ft | 278 kts | 88° |
| 2026-05-07 20:35 | 43.74479 | 1.37205 | 8375 ft | 281 kts | 116° |
| 2026-05-07 20:36 | 43.73258 | 1.39300 | 9301 ft | 284 kts | 144° |
| 2026-05-07 20:36 | 43.71443 | 1.40375 | 10193 ft | 289 kts | 171° |
| 2026-05-07 20:36 | 43.69353 | 1.40529 | 10622 ft | 312 kts | 181° |
| 2026-05-07 20:36 | 43.67122 | 1.40515 | 10970 ft | 337 kts | 181° |
| 2026-05-07 20:37 | 43.64690 | 1.40541 | 11346 ft | 358 kts | 180° |
| 2026-05-07 20:37 | 43.62153 | 1.40615 | 12035 ft | 367 kts | 180° |
| 2026-05-07 20:37 | 43.59590 | 1.40952 | 12843 ft | 374 kts | 168° |
| 2026-05-07 20:37 | 43.57147 | 1.42279 | 13632 ft | 381 kts | 150° |
| 2026-05-07 20:38 | 43.55000 | 1.44390 | 14375 ft | 386 kts | 143° |
| 2026-05-07 20:38 | 43.52866 | 1.46684 | 15101 ft | 390 kts | 143° |
| 2026-05-07 20:38 | 43.50716 | 1.48982 | 15833 ft | 392 kts | 143° |
| 2026-05-07 20:38 | 43.48532 | 1.51274 | 16553 ft | 395 kts | 144° |
| 2026-05-07 20:39 | 43.46327 | 1.53570 | 17253 ft | 398 kts | 144° |
| 2026-05-07 20:39 | 43.44103 | 1.55873 | 17935 ft | 401 kts | 144° |
| 2026-05-07 20:39 | 43.41887 | 1.58163 | 18536 ft | 404 kts | 144° |
| 2026-05-07 20:39 | 43.39634 | 1.60498 | 19095 ft | 408 kts | 144° |
| 2026-05-07 20:40 | 43.37351 | 1.62855 | 19643 ft | 411 kts | 145° |
| 2026-05-07 20:40 | 43.35045 | 1.65234 | 20185 ft | 415 kts | 145° |
| 2026-05-07 20:40 | 43.32717 | 1.67623 | 20737 ft | 418 kts | 145° |
| 2026-05-07 20:40 | 43.30372 | 1.70026 | 21278 ft | 421 kts | 146° |
| 2026-05-07 20:41 | 43.28043 | 1.72415 | 21831 ft | 424 kts | 146° |
| 2026-05-07 20:41 | 43.25669 | 1.74852 | 22404 ft | 427 kts | 146° |
| 2026-05-07 20:41 | 43.23270 | 1.77305 | 22972 ft | 431 kts | 146° |
| 2026-05-07 20:41 | 43.20853 | 1.79771 | 23522 ft | 434 kts | 146° |
| 2026-05-07 20:42 | 43.18420 | 1.82250 | 24011 ft | 437 kts | 146° |
| 2026-05-07 20:42 | 43.15967 | 1.84748 | 24503 ft | 440 kts | 146° |
| 2026-05-07 20:42 | 43.13501 | 1.87258 | 25011 ft | 442 kts | 147° |
| 2026-05-07 20:42 | 43.11036 | 1.89703 | 25497 ft | 442 kts | 150° |
| 2026-05-07 20:43 | 43.08341 | 1.91682 | 25984 ft | 438 kts | 161° |
| 2026-05-07 20:43 | 43.05425 | 1.92857 | 26532 ft | 432 kts | 173° |
| 2026-05-07 20:43 | 43.02447 | 1.93234 | 27063 ft | 428 kts | 181° |
| 2026-05-07 20:43 | 42.99465 | 1.93339 | 27566 ft | 428 kts | 181° |
| 2026-05-07 20:44 | 42.96504 | 1.93429 | 28235 ft | 423 kts | 181° |
| 2026-05-07 20:44 | 42.93607 | 1.93536 | 28976 ft | 417 kts | 181° |
| 2026-05-07 20:44 | 42.90726 | 1.93654 | 29734 ft | 411 kts | 181° |
| 2026-05-07 20:44 | 42.87884 | 1.93775 | 30360 ft | 406 kts | 181° |
| 2026-05-07 20:45 | 42.85059 | 1.93899 | 30879 ft | 403 kts | 182° |
| 2026-05-07 20:45 | 42.82253 | 1.94022 | 31346 ft | 402 kts | 182° |
| 2026-05-07 20:45 | 42.79454 | 1.94142 | 31779 ft | 401 kts | 182° |
| 2026-05-07 20:45 | 42.76698 | 1.94261 | 32168 ft | 401 kts | 182° |
| 2026-05-07 20:46 | 42.73901 | 1.94383 | 32617 ft | 401 kts | 182° |
| 2026-05-07 20:46 | 42.71114 | 1.94504 | 33054 ft | 400 kts | 182° |
| 2026-05-07 20:46 | 42.68326 | 1.94667 | 33511 ft | 400 kts | 180° |
| 2026-05-07 20:46 | 42.65592 | 1.95253 | 33901 ft | 404 kts | 172° |
| 2026-05-07 20:47 | 42.62858 | 1.96209 | 34175 ft | 406 kts | 170° |
| 2026-05-07 20:47 | 42.60123 | 1.97230 | 34356 ft | 408 kts | 170° |
| 2026-05-07 20:47 | 42.57372 | 1.98251 | 34578 ft | 410 kts | 170° |
| 2026-05-07 20:47 | 42.54597 | 1.99263 | 34782 ft | 412 kts | 170° |
| 2026-05-07 20:48 | 42.51858 | 2.00252 | 34983 ft | 414 kts | 170° |
| 2026-05-07 20:48 | 42.49060 | 2.01259 | 35195 ft | 416 kts | 170° |
| 2026-05-07 20:48 | 42.46251 | 2.02266 | 35381 ft | 418 kts | 170° |
| 2026-05-07 20:48 | 42.43433 | 2.03277 | 35590 ft | 420 kts | 170° |
| 2026-05-07 20:49 | 42.40598 | 2.04294 | 35732 ft | 421 kts | 170° |
| 2026-05-07 20:49 | 42.37756 | 2.05310 | 35932 ft | 423 kts | 169° |
| 2026-05-07 20:49 | 42.34931 | 2.06313 | 36133 ft | 424 kts | 170° |
| 2026-05-07 20:49 | 42.32070 | 2.07321 | 36318 ft | 426 kts | 170° |
| 2026-05-07 20:50 | 42.29195 | 2.08337 | 36485 ft | 428 kts | 170° |
| 2026-05-07 20:50 | 42.26301 | 2.09362 | 36648 ft | 430 kts | 169° |
| 2026-05-07 20:50 | 42.23406 | 2.10389 | 36833 ft | 431 kts | 169° |
| 2026-05-07 20:50 | 42.20494 | 2.11421 | 36994 ft | 433 kts | 169° |
| 2026-05-07 20:51 | 42.17567 | 2.12458 | 37038 ft | 434 kts | 169° |
| 2026-05-07 20:51 | 42.11765 | 2.14511 | 37024 ft | 433 kts | 169° |
| 2026-05-07 20:52 | 42.05923 | 2.16572 | 37010 ft | 433 kts | 169° |
| 2026-05-07 20:52 | 42.00088 | 2.18628 | 37004 ft | 433 kts | 169° |
| 2026-05-07 20:53 | 41.94268 | 2.20674 | 36989 ft | 435 kts | 170° |
| 2026-05-07 20:53 | 41.88401 | 2.22732 | 37010 ft | 435 kts | 170° |
| 2026-05-07 20:54 | 41.82537 | 2.24784 | 37005 ft | 435 kts | 170° |
| 2026-05-07 20:54 | 41.76667 | 2.26838 | 37006 ft | 435 kts | 170° |
| 2026-05-07 20:55 | 41.70787 | 2.28892 | 37003 ft | 437 kts | 170° |
| 2026-05-07 20:55 | 41.64906 | 2.30943 | 37010 ft | 436 kts | 170° |
| 2026-05-07 20:56 | 41.59055 | 2.32980 | 37015 ft | 436 kts | 170° |
| 2026-05-07 20:56 | 41.53167 | 2.35024 | 36991 ft | 437 kts | 170° |
| 2026-05-07 20:57 | 41.47292 | 2.37060 | 36999 ft | 438 kts | 170° |
| 2026-05-07 20:57 | 41.42375 | 2.38763 | 37003 ft | 439 kts | 170° |
| 2026-05-07 20:58 | 41.36439 | 2.40814 | 37019 ft | 438 kts | 170° |
| 2026-05-07 20:58 | 41.30544 | 2.42846 | 37013 ft | 440 kts | 170° |
| 2026-05-07 20:59 | 41.24611 | 2.44889 | 37032 ft | 441 kts | 170° |
| 2026-05-07 20:59 | 41.18651 | 2.46938 | 37014 ft | 441 kts | 170° |
| 2026-05-07 21:00 | 41.12743 | 2.48964 | 37008 ft | 441 kts | 170° |
| 2026-05-07 21:00 | 41.06778 | 2.51006 | 37009 ft | 441 kts | 170° |
| 2026-05-07 21:01 | 41.00826 | 2.53041 | 37004 ft | 442 kts | 170° |
| 2026-05-07 21:01 | 40.94865 | 2.55074 | 37001 ft | 442 kts | 170° |
| 2026-05-07 21:02 | 40.88944 | 2.57089 | 37017 ft | 442 kts | 170° |
| 2026-05-07 21:02 | 40.82953 | 2.59125 | 36991 ft | 442 kts | 171° |
| 2026-05-07 21:02 | 40.80019 | 2.60123 | 36322 ft | 441 kts | 170° |
| 2026-05-07 21:03 | 40.76987 | 2.61149 | 35345 ft | 445 kts | 170° |
| 2026-05-07 21:03 | 40.73996 | 2.62161 | 34665 ft | 442 kts | 169° |
| 2026-05-07 21:03 | 40.71034 | 2.63164 | 33973 ft | 438 kts | 169° |
| 2026-05-07 21:03 | 40.68089 | 2.64160 | 33101 ft | 435 kts | 169° |
| 2026-05-07 21:04 | 40.65190 | 2.65138 | 32055 ft | 438 kts | 168° |
| 2026-05-07 21:04 | 40.62228 | 2.66137 | 30998 ft | 440 kts | 168° |
| 2026-05-07 21:04 | 40.59249 | 2.67141 | 29916 ft | 442 kts | 167° |
| 2026-05-07 21:04 | 40.56248 | 2.68152 | 28639 ft | 446 kts | 168° |
| 2026-05-07 21:05 | 40.53235 | 2.69166 | 27580 ft | 445 kts | 167° |
| 2026-05-07 21:05 | 40.50309 | 2.70285 | 26849 ft | 440 kts | 162° |
| 2026-05-07 21:05 | 40.47546 | 2.71979 | 26219 ft | 434 kts | 154° |
| 2026-05-07 21:05 | 40.44918 | 2.73882 | 25601 ft | 427 kts | 153° |
| 2026-05-07 21:06 | 40.42344 | 2.75777 | 24987 ft | 419 kts | 153° |
| 2026-05-07 21:06 | 40.39805 | 2.77634 | 24361 ft | 414 kts | 153° |
| 2026-05-07 21:06 | 40.37331 | 2.79432 | 23737 ft | 408 kts | 153° |
| 2026-05-07 21:06 | 40.34845 | 2.81234 | 23050 ft | 407 kts | 153° |
| 2026-05-07 21:07 | 40.32367 | 2.83024 | 22374 ft | 404 kts | 153° |
| 2026-05-07 21:07 | 40.29901 | 2.84804 | 21700 ft | 403 kts | 153° |
| 2026-05-07 21:07 | 40.27444 | 2.86575 | 21043 ft | 401 kts | 152° |
| 2026-05-07 21:07 | 40.25034 | 2.88313 | 20430 ft | 398 kts | 152° |
| 2026-05-07 21:08 | 40.22617 | 2.90055 | 19821 ft | 395 kts | 152° |
| 2026-05-07 21:08 | 40.20219 | 2.91784 | 19268 ft | 392 kts | 152° |
| 2026-05-07 21:08 | 40.17835 | 2.93503 | 18723 ft | 389 kts | 152° |
| 2026-05-07 21:08 | 40.15467 | 2.95210 | 18168 ft | 388 kts | 152° |
| 2026-05-07 21:09 | 40.13127 | 2.96896 | 17598 ft | 386 kts | 151° |
| 2026-05-07 21:09 | 40.10779 | 2.98586 | 17020 ft | 385 kts | 151° |
| 2026-05-07 21:09 | 40.08428 | 3.00278 | 16460 ft | 383 kts | 151° |
| 2026-05-07 21:09 | 40.06062 | 3.01870 | 15866 ft | 382 kts | 158° |
| 2026-05-07 21:10 | 40.03498 | 3.02620 | 15445 ft | 372 kts | 177° |
| 2026-05-07 21:10 | 40.00984 | 3.02226 | 15193 ft | 358 kts | 196° |
| 2026-05-07 21:10 | 39.98744 | 3.00962 | 15016 ft | 344 kts | 204° |
| 2026-05-07 21:10 | 39.96622 | 2.99668 | 14845 ft | 330 kts | 202° |
| 2026-05-07 21:11 | 39.94540 | 2.98541 | 14699 ft | 317 kts | 200° |
| 2026-05-07 21:11 | 39.92528 | 2.97547 | 14394 ft | 311 kts | 199° |
| 2026-05-07 21:11 | 39.88460 | 2.95669 | 13456 ft | 310 kts | 197° |
| 2026-05-07 21:12 | 39.86419 | 2.94753 | 12959 ft | 309 kts | 198° |
| 2026-05-07 21:12 | 39.84394 | 2.93795 | 12515 ft | 308 kts | 203° |
| 2026-05-07 21:12 | 39.82665 | 2.92184 | 12108 ft | 307 kts | 227° |
| 2026-05-07 21:12 | 39.81397 | 2.89950 | 11748 ft | 306 kts | 236° |
| 2026-05-07 21:13 | 39.80228 | 2.87635 | 11425 ft | 305 kts | 236° |
| 2026-05-07 21:13 | 39.79088 | 2.85395 | 11209 ft | 296 kts | 236° |
| 2026-05-07 21:13 | 39.77956 | 2.83202 | 11051 ft | 286 kts | 235° |
| 2026-05-07 21:13 | 39.76855 | 2.81086 | 10846 ft | 279 kts | 235° |
| 2026-05-07 21:14 | 39.75764 | 2.79003 | 10533 ft | 276 kts | 235° |
| 2026-05-07 21:14 | 39.74698 | 2.76974 | 10214 ft | 274 kts | 234° |
| 2026-05-07 21:14 | 39.73616 | 2.74921 | 9992 ft | 275 kts | 235° |
| 2026-05-07 21:14 | 39.72538 | 2.72875 | 9968 ft | 274 kts | 234° |
| 2026-05-07 21:15 | 39.71461 | 2.70837 | 9983 ft | 272 kts | 235° |
| 2026-05-07 21:15 | 39.70390 | 2.68803 | 9985 ft | 273 kts | 235° |
| 2026-05-07 21:15 | 39.69314 | 2.66763 | 9986 ft | 274 kts | 236° |
| 2026-05-07 21:15 | 39.68222 | 2.64691 | 9996 ft | 277 kts | 236° |
| 2026-05-07 21:16 | 39.67145 | 2.62648 | 9994 ft | 276 kts | 236° |
| 2026-05-07 21:16 | 39.66053 | 2.60579 | 9979 ft | 275 kts | 236° |
| 2026-05-07 21:16 | 39.64969 | 2.58532 | 9540 ft | 277 kts | 236° |
| 2026-05-07 21:16 | 39.63870 | 2.56457 | 9104 ft | 279 kts | 236° |
| 2026-05-07 21:17 | 39.62775 | 2.54385 | 8704 ft | 277 kts | 236° |
| 2026-05-07 21:17 | 39.61686 | 2.52323 | 8310 ft | 277 kts | 236° |
| 2026-05-07 21:17 | 39.60598 | 2.50264 | 7938 ft | 276 kts | 236° |
| 2026-05-07 21:17 | 39.59512 | 2.48213 | 7544 ft | 275 kts | 236° |
| 2026-05-07 21:18 | 39.58443 | 2.46198 | 7187 ft | 275 kts | 237° |
| 2026-05-07 21:18 | 39.57357 | 2.44151 | 6800 ft | 275 kts | 237° |
| 2026-05-07 21:18 | 39.56234 | 2.42173 | 6550 ft | 270 kts | 225° |
| 2026-05-07 21:18 | 39.54652 | 2.41006 | 6381 ft | 257 kts | 190° |
| 2026-05-07 21:19 | 39.52967 | 2.41122 | 6193 ft | 240 kts | 155° |
| 2026-05-07 21:19 | 39.51593 | 2.42244 | 5921 ft | 231 kts | 137° |
| 2026-05-07 21:19 | 39.50365 | 2.43579 | 5622 ft | 228 kts | 137° |
| 2026-05-07 21:19 | 39.49129 | 2.44869 | 5320 ft | 227 kts | 139° |
| 2026-05-07 21:20 | 39.47877 | 2.46115 | 5018 ft | 226 kts | 139° |
| 2026-05-07 21:20 | 39.46619 | 2.47335 | 4730 ft | 224 kts | 140° |
| 2026-05-07 21:20 | 39.45490 | 2.48648 | 4425 ft | 218 kts | 121° |
| 2026-05-07 21:20 | 39.44932 | 2.50417 | 4060 ft | 211 kts | 95° |
| 2026-05-07 21:21 | 39.45184 | 2.52236 | 3644 ft | 206 kts | 57° |
| 2026-05-07 21:21 | 39.46088 | 2.53659 | 3353 ft | 203 kts | 47° |
| 2026-05-07 21:21 | 39.47014 | 2.55014 | 2959 ft | 206 kts | 52° |
| 2026-05-07 21:21 | 39.47863 | 2.56537 | 2612 ft | 209 kts | 57° |
| 2026-05-07 21:22 | 39.48611 | 2.58133 | 2337 ft | 205 kts | 58° |
| 2026-05-07 21:22 | 39.49345 | 2.59688 | 2073 ft | 198 kts | 58° |
| 2026-05-07 21:22 | 39.50033 | 2.61142 | 1879 ft | 185 kts | 58° |
| 2026-05-07 21:22 | 39.50677 | 2.62508 | 1639 ft | 171 kts | 59° |
| 2026-05-07 21:23 | 39.51279 | 2.63783 | 1372 ft | 159 kts | 59° |
| 2026-05-07 21:23 | 39.51836 | 2.64966 | 1136 ft | 148 kts | 58° |
| 2026-05-07 21:23 | 39.52346 | 2.66048 | 961 ft | 133 kts | 58° |
| 2026-05-07 21:23 | 39.52830 | 2.67073 | 773 ft | 134 kts | 58° |
| 2026-05-07 21:24 | 39.53319 | 2.68105 | 580 ft | 135 kts | 57° |
| 2026-05-07 21:24 | 39.53810 | 2.69147 | 401 ft | 135 kts | 59° |
| 2026-05-07 21:24 | 39.54301 | 2.70179 | 232 ft | 137 kts | 59° |
| 2026-05-07 21:24 | 39.54797 | 2.71237 | 56 ft | 137 kts | 57° |
| 2026-05-07 21:25 | 39.55263 | 2.72222 | 44 ft | 111 kts | 59° |
| 2026-05-07 21:25 | 39.55551 | 2.72831 | 44 ft | 50 kts | 59° |
| 2026-05-07 21:25 | 39.55676 | 2.73107 | 44 ft | 32 kts | 60° |
| 2026-05-07 21:25 | 39.55719 | 2.73317 | 44 ft | 23 kts | 91° |
| 2026-05-07 21:26 | 39.55721 | 2.73463 | 44 ft | 13 kts | 88° |
| 2026-05-07 21:26 | 39.55697 | 2.73555 | 44 ft | 10 kts | 181° |
| 2026-05-07 21:26 | 39.55644 | 2.73496 | 44 ft | 12 kts | 185° |
| 2026-05-07 21:26 | 39.55562 | 2.73553 | 44 ft | 15 kts | 150° |
| 2026-05-07 21:27 | 39.55467 | 2.73624 | 44 ft | 17 kts | 150° |
| 2026-05-07 21:27 | 39.55375 | 2.73692 | 44 ft | 14 kts | 149° |
| 2026-05-07 21:27 | 39.55288 | 2.73761 | 44 ft | 8 kts | 148° |
| 2026-05-07 21:27 | 39.55230 | 2.73807 | 43 ft | 11 kts | 148° |
| 2026-05-07 21:28 | 39.55156 | 2.73866 | 44 ft | 14 kts | 148° |
| 2026-05-07 21:28 | 39.55066 | 2.73937 | 44 ft | 16 kts | 148° |
| 2026-05-07 21:28 | 39.54976 | 2.74006 | 44 ft | 6 kts | 160° |
| 2026-05-07 21:28 | 39.54939 | 2.73983 | 44 ft | 7 kts | 239° |
| 2026-05-07 21:29 | 39.54892 | 2.73967 | 44 ft | 9 kts | 159° |
| 2026-05-07 21:29 | 39.54833 | 2.73996 | 44 ft | 10 kts | 191° |
| 2026-05-07 21:29 | 39.54780 | 2.73930 | 44 ft | 11 kts | 234° |
| 2026-05-07 21:29 | 39.54734 | 2.73839 | 44 ft | 13 kts | 240° |
| 2026-05-07 21:30 | 39.54689 | 2.73736 | 44 ft | 14 kts | 240° |
| 2026-05-07 21:30 | 39.54666 | 2.73617 | 41 ft | 15 kts | 308° |
| 2026-05-07 21:30 | 39.54754 | 2.73544 | 44 ft | 13 kts | 326° |
| 2026-05-07 21:30 | 39.54792 | 2.73465 | 44 ft | 10 kts | 311° |
| 2026-05-07 21:31 | 39.54834 | 2.73430 | 44 ft | 4 kts | 332° |
| 2026-05-07 21:31 | 39.54841 | 2.73425 | 44 ft | 0 kts | 331° |